Time;durP1;ratioP1;P1;durP2;ratioP2;P2;SDS_P1;SDS_P2;PMS_P1;PMS_P2;Temp;Humidity;BMP_temperature;BMP_pressure;BME280_temperature;BME280_humidity;BME280_pressure;Samples;Min_cycle;Max_cycle;Signal;HPM_P1;HPM_P2
2023/08/09 00:01:17;;;;;;;6.85;2.15;;;;;;;14.61;93.85;97144.78;5041315;28;20127;-59
2023/08/09 00:03:44;;;;;;;5.53;1.88;;;;;;;14.54;95.67;97149.72;5040390;28;20420;-59
2023/08/09 00:06:10;;;;;;;4.57;1.83;;;;;;;14.55;96.12;97143.16;5040190;28;20159;-59
2023/08/09 00:08:37;;;;;;;3.45;1.50;;;;;;;14.44;95.58;97136.97;5037059;28;20662;-58
2023/08/09 00:11:04;;;;;;;3.70;1.92;;;;;;;14.27;98.35;97138.19;5041020;28;20106;-59
2023/08/09 00:13:30;;;;;;;4.93;2.00;;;;;;;14.12;99.39;97130.91;5042365;28;20076;-59
2023/08/09 00:15:57;;;;;;;3.30;1.60;;;;;;;14.11;100.00;97137.47;5045544;28;20059;-59
2023/08/09 00:18:23;;;;;;;5.15;1.77;;;;;;;14.25;99.99;97128.66;5040896;28;20120;-59
2023/08/09 00:20:50;;;;;;;6.03;2.08;;;;;;;14.29;99.29;97129.72;5043472;28;20056;-59
2023/08/09 00:23:16;;;;;;;4.93;1.65;;;;;;;14.35;99.64;97131.34;5041269;28;20037;-57
2023/08/09 00:25:43;;;;;;;4.53;1.48;;;;;;;14.31;98.87;97119.38;5045128;28;20183;-59
2023/08/09 00:28:09;;;;;;;3.33;1.60;;;;;;;14.29;99.41;97127.00;5040045;28;20048;-59
2023/08/09 00:30:36;;;;;;;5.72;1.73;;;;;;;14.34;99.70;97115.28;5038748;28;20052;-59
2023/08/09 00:33:04;;;;;;;6.22;1.73;;;;;;;14.21;99.84;97109.38;5043371;28;20047;-59
2023/08/09 00:35:31;;;;;;;4.03;1.67;;;;;;;14.26;99.67;97108.53;5041906;28;20049;-58
2023/08/09 00:37:57;;;;;;;4.28;1.65;;;;;;;14.26;99.60;97101.16;5049133;28;20042;-59
2023/08/09 00:40:24;;;;;;;3.25;1.33;;;;;;;14.41;97.02;97105.69;5043792;28;20708;-59
2023/08/09 00:42:51;;;;;;;2.50;1.33;;;;;;;14.61;93.25;97094.91;5041608;28;20039;-59
2023/08/09 00:45:18;;;;;;;3.88;1.48;;;;;;;14.62;96.42;97100.06;5043088;28;20044;-59
2023/08/09 00:47:45;;;;;;;3.08;1.45;;;;;;;14.64;95.83;97107.97;5038650;28;20049;-59
2023/08/09 00:50:11;;;;;;;3.58;1.48;;;;;;;14.64;92.18;97106.06;5030703;28;20072;-59
2023/08/09 00:52:38;;;;;;;4.00;1.73;;;;;;;14.85;89.26;97114.06;5037073;28;20428;-59
2023/08/09 00:55:06;;;;;;;2.92;1.50;;;;;;;15.00;87.80;97109.59;5045853;28;20052;-59
2023/08/09 00:57:33;;;;;;;4.22;1.40;;;;;;;15.15;86.20;97117.63;5040018;28;20072;-59
2023/08/09 01:00:01;;;;;;;3.60;1.48;;;;;;;15.18;85.80;97106.13;5037340;28;20126;-59
2023/08/09 01:02:27;;;;;;;3.40;1.48;;;;;;;15.05;88.53;97102.19;5041619;28;20099;-59
2023/08/09 01:04:55;;;;;;;4.45;1.65;;;;;;;14.97;88.63;97093.81;5038900;28;20045;-59
2023/08/09 01:07:34;;;;;;;3.33;1.27;;;;;;;14.99;87.69;97099.78;5038264;28;20060;-59
2023/08/09 01:10:15;;;;;;;3.00;1.30;;;;;;;15.18;85.70;97097.13;5037619;28;20556;-58
2023/08/09 01:12:52;;;;;;;3.60;1.98;;;;;;;15.24;86.06;97100.63;5038302;28;20137;-59
2023/08/09 01:15:21;;;;;;;2.65;1.20;;;;;;;15.17;85.93;97090.88;5039983;28;20144;-57
2023/08/09 01:17:51;;;;;;;3.10;1.30;;;;;;;15.15;86.49;97093.06;5037891;28;20131;-59
2023/08/09 01:20:22;;;;;;;2.47;1.45;;;;;;;14.95;89.23;97078.56;5041762;28;20025;-58
2023/08/09 01:23:05;;;;;;;3.90;1.35;;;;;;;15.03;87.04;97073.56;5041765;28;20053;-59
2023/08/09 01:25:32;;;;;;;3.40;1.40;;;;;;;15.08;89.44;97081.72;5043583;28;20037;-59
2023/08/09 01:28:00;;;;;;;6.20;1.60;;;;;;;14.97;90.96;97080.19;5036523;28;20044;-59
2023/08/09 01:30:27;;;;;;;5.63;2.13;;;;;;;14.90;89.90;97083.25;5057209;28;20086;-59
2023/08/09 01:32:54;;;;;;;3.35;1.38;;;;;;;15.02;87.66;97082.84;5040548;28;20040;-59
2023/08/09 01:35:23;;;;;;;3.45;1.27;;;;;;;15.06;87.35;97073.81;5042540;28;20040;-59
2023/08/09 01:38:13;;;;;;;3.40;1.23;;;;;;;15.11;87.01;97092.03;5038367;28;20049;-59
2023/08/09 01:40:40;;;;;;;3.90;1.40;;;;;;;15.29;85.05;97087.75;5040145;28;20076;-59
2023/08/09 01:43:07;;;;;;;3.10;1.50;;;;;;;15.29;85.76;97087.75;5037316;28;20049;-58
2023/08/09 01:45:34;;;;;;;4.60;1.50;;;;;;;15.37;84.68;97102.66;5037754;28;20033;-59
2023/08/09 01:48:01;;;;;;;2.47;1.33;;;;;;;15.35;84.22;97102.13;5039860;28;20049;-59
2023/08/09 01:50:28;;;;;;;1.75;1.13;;;;;;;15.47;83.18;97110.75;5039569;28;20585;-59
2023/08/09 01:52:55;;;;;;;2.80;1.30;;;;;;;15.50;83.33;97116.69;5041664;28;20071;-58
2023/08/09 01:55:25;;;;;;;8.15;1.50;;;;;;;15.46;83.33;97114.56;5039892;28;20081;-59
2023/08/09 01:57:53;;;;;;;2.70;1.52;;;;;;;15.48;83.52;97117.81;5029738;28;20041;-59
2023/08/09 02:00:20;;;;;;;3.78;1.38;;;;;;;15.50;83.52;97130.34;5040946;28;20045;-59
2023/08/09 02:02:49;;;;;;;2.97;1.30;;;;;;;15.38;84.27;97119.84;5041477;28;20041;-59
2023/08/09 02:05:16;;;;;;;2.83;1.20;;;;;;;15.37;84.06;97121.75;5044034;28;20519;-59
2023/08/09 02:07:43;;;;;;;3.63;1.30;;;;;;;15.31;85.42;97120.19;5031427;28;20059;-59
2023/08/09 02:10:11;;;;;;;3.10;1.42;;;;;;;15.19;87.61;97121.38;5040145;28;20048;-59
2023/08/09 02:12:38;;;;;;;2.55;1.27;;;;;;;15.18;88.40;97116.22;5043306;28;20052;-59
2023/08/09 02:15:06;;;;;;;3.17;1.38;;;;;;;15.11;88.95;97119.28;5043191;28;20041;-59
2023/08/09 02:17:33;;;;;;;2.72;1.20;;;;;;;14.98;90.80;97120.78;5039582;28;20044;-59
2023/08/09 02:20:00;;;;;;;3.47;1.33;;;;;;;14.85;93.33;97127.69;5039734;28;20060;-59
2023/08/09 02:22:35;;;;;;;4.45;1.50;;;;;;;14.80;91.97;97125.03;5040210;28;20107;-59
2023/08/09 02:25:01;;;;;;;5.03;1.50;;;;;;;14.67;93.40;97135.44;5039149;28;20044;-59
2023/08/09 02:27:28;;;;;;;3.80;1.30;;;;;;;14.56;95.32;97131.19;5039188;28;20532;-59
2023/08/09 02:29:55;;;;;;;2.45;1.25;;;;;;;14.47;95.92;97128.25;5042082;28;20053;-59
2023/08/09 02:32:21;;;;;;;3.42;1.40;;;;;;;14.46;96.13;97133.97;5039053;28;20075;-59
2023/08/09 02:34:50;;;;;;;3.17;1.48;;;;;;;14.31;96.32;97122.91;5040448;28;20507;-59
2023/08/09 02:37:16;;;;;;;4.30;1.42;;;;;;;14.22;98.22;97123.81;5037776;28;20038;-59
2023/08/09 02:39:43;;;;;;;3.75;1.63;;;;;;;14.28;98.89;97119.94;5045520;28;20131;-59
2023/08/09 02:42:09;;;;;;;3.30;1.30;;;;;;;14.31;97.75;97117.44;5033341;28;20041;-59
2023/08/09 02:44:36;;;;;;;2.75;1.50;;;;;;;14.26;98.52;97122.94;5038410;28;20440;-59
2023/08/09 02:47:03;;;;;;;5.40;1.60;;;;;;;14.21;98.61;97120.25;5036681;28;20038;-58
